Flight Track Log - Related Links

Times and Time Zones

All times are in EDT time to prevent confusion due to time zone crossing. See the GGN7280 flight status page for this flight to view local times or setup timezone preferences in your user account.

Time Position Orientation Groundspeed Altitude Reporting Facility
EDT Latitude Longitude Course Direction KTS MPH feet Rate Location/Type
Tue 09:31:01 AM 43.6333 -79.6167 125° Southeast 190 219 2,100  Level Toronto Center
Tue 09:32:01 AM 43.5667 -79.5833 160° South 210 242 3,400 1,350 Climbing Toronto Center
Tue 09:33:01 AM 43.5167 -79.5333 144° Southeast 220 253 4,800 850 Climbing Toronto Center
Tue 09:34:01 AM 43.5000 -79.4667 109° East 240 276 5,100 150 Climbing Toronto Center
Tue 09:35:01 AM 43.5000 -79.3833 90° East 250 288 5,100  Level Toronto Center
Tue 09:36:00 AM 43.5928 -79.0033 125° Southeast  Level Estimated
Tue 09:36:01 AM 43.5167 -79.2667 79° East 250 288 5,100  Level Toronto Center
Tue 09:37:01 AM 43.5333 -79.2000 71° East 240 276 6,400 1,350 Climbing Toronto Center
Tue 09:38:01 AM 43.5000 -79.1333 125° Southeast 210 242 7,800 1,500 Climbing Toronto Center
Tue 09:39:01 AM 43.4667 -79.0667 125° Southeast 210 242 9,400 1,500 Climbing Toronto Center
Tue 09:40:01 AM 43.4500 -78.9667 103° East 210 242 10,800 1,550 Climbing Toronto Center
Tue 09:41:01 AM 43.4167 -78.9000 125° Southeast 210 242 12,500 1,900 Climbing Toronto Center
Tue 09:42:01 AM 43.4167 -78.8333 90° East 210 242 14,600 1,900 Climbing Toronto Center
Tue 09:43:01 AM 43.4000 -78.7667 109° East 190 219 16,300 1,600 Climbing Toronto Center
Tue 09:44:01 AM 43.4000 -78.6667 90° East 210 242 17,800 1,250 Climbing Toronto Center
Tue 09:45:01 AM 43.3833 -78.6000 109° East 210 242 18,800 1,043 Climbing Toronto Center
Tue 09:45:33 AM 43.3847 -78.5722 86° East 207 238 19,400 1,174 Climbing Cleveland Center
Tue 09:46:33 AM 43.3750 -78.4897 99° East 213 245 20,600 750 Climbing Cleveland Center
Tue 09:47:33 AM 43.3650 -78.3989 99° East 224 258 20,900 200 Climbing Cleveland Center
Tue 09:48:33 AM 43.3528 -78.3050 100° East 238 274 21,000 50 Climbing Cleveland Center
Tue 09:49:33 AM 43.3425 -78.2111 99° East 243 280 21,000  Level Cleveland Center
Tue 09:50:33 AM 43.3322 -78.1144 98° East 248 285 21,000  Level Cleveland Center
Tue 09:51:33 AM 43.3197 -78.0181 100° East 253 291 21,000  Level Cleveland Center
Tue 09:52:33 AM 43.3092 -77.9214 99° East 258 297 21,000  Level Cleveland Center
Tue 09:53:33 AM 43.2983 -77.8219 98° East 258 297 21,000 -50 Level Cleveland Center
Tue 09:54:33 AM 43.2858 -77.7283 100° East 258 297 20,900 -50 Descending Cleveland Center
Tue 09:55:33 AM 43.2750 -77.6319 99° East 258 297 20,900 50 Level Cleveland Center
Tue 09:56:33 AM 43.2622 -77.5356 100° East 258 297 21,000 50 Climbing Cleveland Center
Tue 09:57:33 AM 43.2511 -77.4364 99° East 258 297 21,000  Level Cleveland Center
Tue 09:58:33 AM 43.2381 -77.3403 101° East 258 297 21,000  Level Cleveland Center
Tue 09:59:33 AM 43.2269 -77.2439 99° East 258 297 21,000  Level Cleveland Center
Tue 10:01:14 AM 43.2103 -77.0900 98° East 254 292 21,000  Level Boston Center
Tue 10:02:01 AM 43.1833 -76.9833 109° East 260 299 21,000  Level Toronto Center
Tue 10:03:01 AM 43.1833 -76.8667 90° East 260 299 21,000  Level Toronto Center
Tue 10:04:01 AM 43.1667 -76.7833 105° East 260 299 21,000 -50 Level Toronto Center
Tue 10:05:01 AM 43.1500 -76.6833 103° East 260 299 20,900 -50 Descending Toronto Center
Tue 10:06:01 AM 43.1333 -76.5667 101° East 260 299 20,900 50 Level Toronto Center
Tue 10:07:01 AM 43.1167 -76.4833 105° East 260 299 21,000 45 Climbing Toronto Center
Tue 10:08:14 AM 43.1233 -76.4061 83° East 259 298 21,000  Level Boston Center
Tue 10:09:15 AM 43.1100 -76.3083 101° East 259 298 21,000 -50 Level Boston Center
Tue 10:10:14 AM 43.0967 -76.2108 101° East 259 298 20,900 -252 Descending Boston Center
Tue 10:11:14 AM 43.0831 -76.1133 101° East 259 298 20,500 -496 Descending Boston Center
Tue 10:12:15 AM 43.0697 -76.0103 100° East 259 298 19,900 -545 Descending Boston Center
Tue 10:13:15 AM 43.0542 -75.9042 101° East 264 304 19,400 -504 Descending Boston Center
Tue 10:14:14 AM 43.0386 -75.8008 102° East 269 310 18,900 -450 Descending Boston Center
Tue 10:15:15 AM 43.0250 -75.6950 100° East 274 315 18,500 -400 Descending Boston Center
Tue 10:16:14 AM 43.0111 -75.5922 100° East 279 321 18,100 -350 Descending Boston Center
Tue 10:17:15 AM 42.9975 -75.4864 100° East 279 321 17,800 -248 Descending Boston Center
Tue 10:18:15 AM 42.9833 -75.3864 101° East 279 321 17,600 -504 Descending Boston Center
Tue 10:19:14 AM 42.9672 -75.2806 102° East 279 321 16,800 -800 Descending Boston Center
Tue 10:20:15 AM 42.9553 -75.1722 99° East 279 321 16,000 -744 Descending Boston Center
Tue 10:21:15 AM 42.9392 -75.0664 102° East 279 321 15,300 -850 Descending Boston Center
Tue 10:22:15 AM 42.9206 -74.9608 104° East 279 321 14,300 -1,526 Descending Boston Center
Tue 10:23:09 AM 42.9022 -74.8494 103° East 289 333 12,400 -1,857 Descending Boston Center
Tue 10:23:39 AM 42.8950 -74.8008 101° East 290 334 11,700 -1,000 Descending Boston Center
Tue 10:24:15 AM 42.8858 -74.7353 101° East 285 328 11,300 -590 Descending Boston Center
Tue 10:24:40 AM 42.8806 -74.6900 99° East 276 318 11,100 -300 Descending Boston Center
Tue 10:25:15 AM 42.8772 -74.6472 96° East 273 314 11,000  Descending Boston Center
Tue 10:25:35 AM 42.8717 -74.6072 101° East 260 299 11,100  Climbing Boston Center
Tue 10:26:14 AM 42.8644 -74.5392 98° East 263 303 11,000 -100 Descending Boston Center
Tue 10:26:35 AM 42.8569 -74.5050 107° East 256 295 11,000  Level Boston Center
Tue 10:27:15 AM 42.8494 -74.4564 102° East 249 287 11,000 -689 Level Boston Center
Tue 10:27:36 AM 42.8503 -74.4083 89° East 270 311 10,300 -1,468 Descending Boston Center
Tue 10:28:49 AM 42.8564 -74.2811 86° East 280 322 8,700 -1,333 Descending Boston Center
Tue 10:29:15 AM 42.8550 -74.2528 94° East 267 307 8,100 -1,837 Descending Boston Center
Tue 10:29:38 AM 42.8514 -74.2072 96° East 250 288 7,200 -2,000 Descending Boston Center
Tue 10:30:15 AM 42.8461 -74.1506 97° East 255 293 6,100 -1,973 Descending Boston Center
Tue 10:30:51 AM 42.8406 -74.1022 99° East 225 259 4,800 -1,627 Descending Boston Center
Tue 10:31:14 AM 42.8389 -74.0767 95° East 229 264 4,500 -1,250 Descending Boston Center
Tue 10:31:39 AM 42.8350 -74.0428 99° East 216 249 3,800 -1,180 Descending Boston Center
Tue 10:32:15 AM 42.8275 -73.9886 101° East 217 250 3,300 -1,475 Descending Boston Center
Tue 10:32:40 AM 42.8258 -73.9631 95° East 208 239 2,300 -600 Descending Boston Center
Tue 10:33:15 AM 42.8181 -73.9119 102° East 212 244 2,700 -164 Climbing Boston Center
Tue 10:33:53 AM 42.8144 -73.8694 97° East 192 221 2,100 15,559 Descending Boston Center
Tue 10:34:14 AM 42.8086 -73.8353 103° East 212 244 18,000 -500 Climbing Boston Center
Tue 10:34:53 AM 42.7986 -73.8125 121° Southeast 158 182 1,600  Descending Boston Center
Tue 10:35:15 AM 42.7992 -73.7558 89° East 212 244 18,000 12,148 Climbing Boston Center
Tue 10:36:14 AM 42.7897 -73.6792 100° East 212 244 18,000  Level Boston Center
Tue 10:37:15 AM 42.7878 -73.6622 99° East 212 244 18,000  Level Boston Center
Tue 10:39:00 AM 42.7491 -73.8020 249° West  Level Estimated

Login

Don't have an account? Register now (free) for customized features, flight alerts, and more!